Time;durP1;ratioP1;P1;durP2;ratioP2;P2;SDS_P1;SDS_P2;PMS_P1;PMS_P2;Temp;Humidity;BMP_temperature;BMP_pressure;BME280_temperature;BME280_humidity;BME280_pressure;Samples;Min_cycle;Max_cycle;Signal;HPM_P1;HPM_P2
2022/01/12 00:01:05;;;;;;;5.80;4.85;;;7.40;56.00;;;-142.21;90.76;112049.66;4993601;28;20200;-78
2022/01/12 00:03:33;;;;;;;6.20;5.60;;;7.40;55.90;;;-142.21;90.91;112049.66;4975119;28;20361;-78
2022/01/12 00:06:01;;;;;;;5.32;4.72;;;7.40;56.70;;;-142.21;90.74;112049.66;4974058;28;20204;-78
2022/01/12 00:08:31;;;;;;;5.33;4.83;;;7.40;56.10;;;-142.21;90.51;112049.66;4974915;28;20218;-77
2022/01/12 00:10:58;;;;;;;6.00;5.20;;;7.40;56.00;;;-142.21;91.17;112049.66;4974638;28;20936;-77
2022/01/12 00:13:26;;;;;;;5.80;5.20;;;7.40;56.20;;;-142.21;91.31;112049.66;4957681;28;20452;-76
2022/01/12 00:15:54;;;;;;;5.77;5.13;;;7.40;56.20;;;-142.21;91.17;112049.66;4974792;28;20448;-77
2022/01/12 00:18:23;;;;;;;6.03;5.43;;;7.40;56.40;;;-142.21;91.40;112049.66;4973883;28;20490;-79
2022/01/12 00:20:51;;;;;;;6.07;5.43;;;7.40;56.40;;;-142.21;91.65;112049.66;4974128;28;20979;-77
2022/01/12 00:23:19;;;;;;;6.00;5.40;;;7.40;56.20;;;-142.21;92.28;112049.66;4956971;28;20221;-77
2022/01/12 00:34:02;;;;;;;6.37;5.67;;;7.20;57.20;;;-142.21;93.84;112049.66;4992956;28;20195;-77
2022/01/12 00:36:31;;;;;;;7.00;5.80;;;7.20;57.30;;;-142.21;93.94;112049.66;4993435;28;20483;-77
2022/01/12 00:38:59;;;;;;;8.52;6.88;;;7.20;57.40;;;-142.21;94.30;112049.66;4993780;28;20581;-78
2022/01/12 00:41:27;;;;;;;7.43;6.63;;;7.30;57.30;;;-142.21;92.41;112049.66;4976556;28;20611;-78
2022/01/12 00:43:59;;;;;;;7.45;6.75;;;7.20;56.80;;;-142.21;92.90;112049.66;4981411;28;20283;-78
2022/01/12 00:46:28;;;;;;;9.55;7.38;;;7.20;57.00;;;-142.21;91.86;112049.66;4993738;28;20219;-77
2022/01/12 00:48:58;;;;;;;7.80;6.80;;;7.20;56.90;;;-142.21;92.04;112049.66;4993660;28;20211;-77
2022/01/12 00:51:32;;;;;;;7.60;6.90;;;7.20;56.90;;;-142.21;92.53;112049.66;4993440;28;20435;-77
2022/01/12 00:54:01;;;;;;;7.88;6.45;;;7.20;57.00;;;-142.21;92.14;112049.66;4993535;28;20192;-78
2022/01/12 00:56:28;;;;;;;7.47;6.75;;;7.20;56.90;;;-142.21;91.31;112049.66;4993290;28;20206;-77
2022/01/12 00:58:55;;;;;;;8.07;7.20;;;7.10;56.60;;;-142.21;91.02;112049.66;4992841;28;20223;-77
2022/01/12 01:01:23;;;;;;;8.80;7.40;;;7.10;56.60;;;-142.21;92.22;112049.66;4992815;28;20454;-77
2022/01/12 01:03:51;;;;;;;8.40;7.47;;;7.10;56.90;;;-142.21;92.61;112049.66;4993293;28;20207;-77
2022/01/12 01:06:19;;;;;;;7.88;7.00;;;7.20;57.20;;;-142.21;92.60;112049.66;4993070;28;20208;-77
2022/01/12 01:08:51;;;;;;;10.45;8.10;;;7.10;57.00;;;-142.21;93.66;112049.66;4976488;28;20203;-77
2022/01/12 01:11:18;;;;;;;9.63;7.95;;;7.10;57.00;;;-142.21;92.71;112049.66;4992703;28;20649;-77
2022/01/12 01:13:56;;;;;;;8.45;7.55;;;7.10;57.10;;;-142.21;92.70;112049.66;4959329;28;20204;-77
2022/01/12 01:16:28;;;;;;;9.63;8.25;;;7.10;57.10;;;-142.21;92.84;112049.66;4961208;28;20224;-77
2022/01/12 01:27:20;;;;;;;8.10;7.15;;;6.90;57.00;;;-142.21;94.36;112049.66;4972928;28;20776;-76
2022/01/12 01:29:48;;;;;;;8.32;7.47;;;6.80;57.00;;;-142.21;93.97;112049.66;4973468;28;20602;-77
2022/01/12 01:32:15;;;;;;;7.47;6.65;;;6.80;57.10;;;-142.21;94.48;112049.66;4975014;28;20258;-76
2022/01/12 01:34:46;;;;;;;8.18;7.18;;;6.80;57.20;;;-142.21;95.10;112049.66;4992956;28;20211;-77
2022/01/12 01:37:14;;;;;;;7.85;6.53;;;6.70;57.20;;;-142.21;95.02;112049.66;4992806;28;20236;-77
2022/01/12 01:39:43;;;;;;;7.53;6.63;;;6.70;57.40;;;-142.21;95.50;112049.66;4976157;28;20227;-77
2022/01/12 01:42:18;;;;;;;6.85;6.05;;;6.60;57.20;;;-142.21;95.48;112049.66;4992562;28;20726;-78
2022/01/12 01:53:21;;;;;;;8.27;6.53;;;6.20;57.90;;;-142.21;96.69;112049.66;4942581;28;20602;-76
2022/01/12 01:55:51;;;;;;;8.38;6.75;;;6.30;57.90;;;-142.21;97.15;112049.66;4993092;28;20196;-77
2022/01/12 01:58:18;;;;;;;7.90;6.85;;;6.30;57.90;;;-142.21;97.36;112049.66;4992484;28;20232;-77
2022/01/12 02:00:46;;;;;;;10.30;6.85;;;6.20;57.60;;;-142.21;97.09;112049.66;4991957;28;20204;-78
2022/01/12 02:03:13;;;;;;;7.47;6.25;;;6.20;57.70;;;-142.21;97.48;112049.66;4975252;28;20203;-77
2022/01/12 02:05:41;;;;;;;8.65;7.10;;;6.10;57.90;;;-142.21;97.94;112049.66;4995220;28;20302;-78
2022/01/12 02:08:08;;;;;;;9.98;7.93;;;6.00;58.20;;;-142.21;98.68;112049.66;4996853;28;20230;-77
2022/01/12 02:10:36;;;;;;;9.60;8.05;;;6.00;58.20;;;-142.21;98.30;112049.66;4996033;28;20235;-75
2022/01/12 02:13:05;;;;;;;8.07;7.25;;;6.00;58.30;;;-142.21;98.62;112049.66;4991348;28;20217;-76
2022/01/12 02:15:32;;;;;;;9.32;8.00;;;6.00;58.20;;;-142.21;99.59;112049.66;4976151;28;20211;-78
2022/01/12 02:18:10;;;;;;;9.07;7.50;;;5.90;58.40;;;-142.21;99.10;112049.66;4990849;28;20210;-76
2022/01/12 02:40:21;;;;;;;7.95;7.15;;;5.60;59.10;;;-142.21;100.00;112049.66;4961968;28;20187;-77
2022/01/12 02:42:59;;;;;;;8.10;7.15;;;5.50;59.00;;;-142.21;100.00;112049.66;4975876;28;20248;-76
2022/01/12 02:51:08;;;;;;;7.10;6.30;;;5.50;59.40;;;-142.21;100.00;112049.66;4975817;28;20250;-78
2022/01/12 02:53:41;;;;;;;7.15;6.45;;;5.40;59.60;;;-142.21;100.00;112049.66;4969634;28;20196;-78
2022/01/12 02:56:10;;;;;;;7.88;6.35;;;5.40;59.50;;;-142.21;100.00;112049.66;4995096;28;20184;-78
2022/01/12 02:58:40;;;;;;;7.53;6.07;;;5.30;59.60;;;-142.21;100.00;112049.66;4995896;28;20253;-77
2022/01/12 03:03:55;;;;;;;7.15;6.20;;;5.30;59.10;;;-142.21;100.00;112049.66;4995511;28;20215;-78
2022/01/12 03:06:27;;;;;;;7.05;6.35;;;5.20;58.80;;;-142.21;100.00;112049.66;4995238;28;20569;-78
2022/01/12 03:08:56;;;;;;;7.20;6.22;;;5.20;59.20;;;-142.21;100.00;112049.66;4995831;28;20231;-78
2022/01/12 03:11:26;;;;;;;8.98;6.63;;;5.20;59.40;;;-142.21;100.00;112049.66;4994898;28;20208;-78
2022/01/12 03:13:54;;;;;;;8.10;6.68;;;5.10;59.60;;;-142.21;100.00;112049.66;4994497;28;20230;-78
2022/01/12 03:16:25;;;;;;;8.07;6.78;;;5.10;60.30;;;-142.21;100.00;112049.66;4994334;28;20291;-78
2022/01/12 03:18:55;;;;;;;9.25;6.80;;;5.00;59.70;;;-142.21;100.00;112049.66;4982712;28;20587;-78
2022/01/12 03:21:25;;;;;;;9.27;7.30;;;5.00;59.80;;;-142.21;100.00;112049.66;4975046;28;20219;-78
2022/01/12 03:23:55;;;;;;;8.05;6.25;;;5.00;60.10;;;-142.21;100.00;112049.66;4974670;28;20219;-79
2022/01/12 03:26:25;;;;;;;8.60;6.93;;;4.90;60.30;;;-142.21;100.00;112049.66;4975471;28;20367;-78
2022/01/12 03:28:54;;;;;;;8.57;7.65;;;4.90;60.60;;;-142.21;100.00;112049.66;4975610;28;20213;-79
2022/01/12 03:31:24;;;;;;;8.95;7.40;;;4.90;60.30;;;-142.21;100.00;112049.66;4975083;28;20213;-79
2022/01/12 03:34:08;;;;;;;9.50;7.82;;;4.80;60.60;;;-142.21;100.00;112049.66;4975729;28;20227;-78
2022/01/12 03:36:54;;;;;;;10.05;7.75;;;4.80;60.70;;;-142.21;100.00;112049.66;4974077;28;20212;-79
2022/01/12 03:39:24;;;;;;;8.73;7.82;;;4.80;60.20;;;-142.21;100.00;112049.66;4970894;28;20219;-78
2022/01/12 03:41:52;;;;;;;9.13;7.43;;;4.80;60.80;;;-142.21;100.00;112049.66;4973874;28;20243;-78
2022/01/12 03:44:19;;;;;;;8.00;6.90;;;4.80;60.10;;;-142.21;100.00;112049.66;4975167;28;20307;-78
2022/01/12 03:46:50;;;;;;;9.52;7.82;;;4.80;60.50;;;-142.21;100.00;112049.66;4973656;28;20234;-78
2022/01/12 03:49:19;;;;;;;8.75;7.70;;;4.80;60.50;;;-142.21;100.00;112049.66;4975683;28;20192;-78
2022/01/12 03:51:48;;;;;;;9.55;7.40;;;4.80;60.50;;;-142.21;100.00;112049.66;4974525;28;20219;-79
2022/01/12 03:54:18;;;;;;;8.80;7.40;;;4.80;60.10;;;-142.21;100.00;112049.66;4960235;28;20307;-78
2022/01/12 03:56:47;;;;;;;9.63;7.88;;;4.60;60.40;;;-142.21;100.00;112049.66;4953455;29;20566;-78
2022/01/12 03:59:15;;;;;;;8.70;7.25;;;4.60;60.80;;;-142.21;100.00;112049.66;4955423;29;20229;-79
2022/01/12 04:01:42;;;;;;;10.20;7.45;;;4.60;62.00;;;-142.21;100.00;112049.66;4955004;29;20678;-79
2022/01/12 04:04:16;;;;;;;9.02;7.63;;;4.60;61.10;;;-142.21;100.00;112049.66;4955836;29;20629;-79
2022/01/12 04:09:28;;;;;;;9.18;7.45;;;4.60;60.70;;;-142.21;100.00;112049.66;4955422;29;20196;-78
2022/01/12 04:11:56;;;;;;;9.40;7.45;;;4.80;60.90;;;-142.21;100.00;112049.66;4955142;29;20215;-78
2022/01/12 04:14:23;;;;;;;11.18;7.60;;;4.60;61.00;;;-142.21;100.00;112049.66;4971901;28;20231;-78
2022/01/12 04:16:51;;;;;;;8.77;7.30;;;4.60;61.10;;;-142.21;100.00;112049.66;4974028;28;20203;-78
2022/01/12 04:19:18;;;;;;;8.73;7.40;;;4.60;61.00;;;-142.21;100.00;112049.66;4974417;28;20232;-78
2022/01/12 04:21:48;;;;;;;10.10;7.65;;;4.60;61.30;;;-142.21;100.00;112049.66;4974640;28;20208;-78
2022/01/12 04:24:16;;;;;;;8.43;7.43;;;4.50;61.30;;;-142.21;100.00;112049.66;4973137;28;20192;-78
2022/01/12 04:26:43;;;;;;;10.13;7.68;;;4.40;61.60;;;-142.21;100.00;112049.66;4974209;28;20215;-78
2022/01/12 04:29:13;;;;;;;8.65;6.70;;;4.40;61.70;;;-142.21;100.00;112049.66;4973647;28;20241;-76
2022/01/12 04:31:41;;;;;;;10.32;7.75;;;4.30;61.70;;;-142.21;100.00;112049.66;4973593;28;20208;-79
2022/01/12 04:34:09;;;;;;;10.00;7.43;;;4.40;61.70;;;-142.21;100.00;112049.66;4972844;28;20220;-79
2022/01/12 04:36:37;;;;;;;9.50;7.65;;;4.30;61.30;;;-142.21;100.00;112049.66;4974257;28;20235;-78
2022/01/12 04:39:04;;;;;;;8.85;7.55;;;4.40;61.60;;;-142.21;100.00;112049.66;4972296;28;20225;-78
2022/01/12 04:41:32;;;;;;;8.73;7.55;;;4.30;61.60;;;-142.21;100.00;112049.66;4978052;28;20606;-79
2022/01/12 04:44:01;;;;;;;8.80;7.25;;;4.30;61.60;;;-142.21;100.00;112049.66;4993472;28;20198;-79
2022/01/12 04:46:38;;;;;;;8.85;7.38;;;4.30;61.90;;;-142.21;100.00;112049.66;4976355;28;20370;-79
2022/01/12 04:49:24;;;;;;;9.52;7.82;;;4.30;61.70;;;-142.21;100.00;112049.66;4925606;28;20208;-79
2022/01/12 04:51:52;;;;;;;10.90;7.78;;;4.30;61.40;;;-142.21;100.00;112049.66;4973856;28;20200;-79
2022/01/12 04:54:19;;;;;;;9.80;8.50;;;4.30;61.40;;;-142.21;100.00;112049.66;4984112;28;20231;-78
2022/01/12 04:56:46;;;;;;;10.05;8.40;;;4.30;62.00;;;-142.21;100.00;112049.66;4993566;28;20204;-78
2022/01/12 04:59:13;;;;;;;8.95;7.70;;;4.20;62.50;;;-142.21;100.00;112049.66;4975899;28;20286;-78
2022/01/12 05:01:50;;;;;;;9.88;7.88;;;4.30;62.60;;;-142.21;100.00;112049.66;4993541;28;20207;-78
2022/01/12 05:10:01;;;;;;;10.93;9.02;;;4.00;62.30;;;-142.21;100.00;112049.66;4987171;28;20203;-77
2022/01/12 05:15:23;;;;;;;9.52;7.90;;;4.00;63.30;;;-142.21;100.00;112049.66;4968695;28;20204;-77
2022/01/12 05:17:52;;;;;;;12.88;8.35;;;4.00;62.70;;;-142.21;100.00;112049.66;4974172;28;20594;-77
2022/01/12 05:20:21;;;;;;;10.63;7.80;;;4.00;62.10;;;-142.21;100.00;112049.66;4988669;28;20228;-77
2022/01/12 05:22:48;;;;;;;10.90;8.25;;;4.00;62.00;;;-142.21;100.00;112049.66;4975399;28;20972;-79
2022/01/12 05:25:17;;;;;;;12.35;8.63;;;4.00;61.80;;;-142.21;100.00;112049.66;4993332;28;20210;-79
2022/01/12 05:27:45;;;;;;;9.43;8.10;;;4.00;61.40;;;-142.21;100.00;112049.66;4992326;28;20212;-79
2022/01/12 05:30:13;;;;;;;9.55;7.78;;;4.00;61.30;;;-142.21;100.00;112049.66;4976062;28;20208;-79
2022/01/12 05:32:42;;;;;;;10.55;8.48;;;4.00;61.60;;;-142.21;100.00;112049.66;4992532;28;20207;-79
2022/01/12 05:35:13;;;;;;;8.85;7.43;;;4.00;62.30;;;-142.21;100.00;112049.66;4992690;28;20208;-79
2022/01/12 05:37:41;;;;;;;9.05;7.78;;;4.00;62.50;;;-142.21;100.00;112049.66;4992465;28;20212;-79
2022/01/12 05:40:10;;;;;;;9.63;7.45;;;4.00;62.30;;;-142.21;100.00;112049.66;4996974;28;20235;-79
2022/01/12 05:42:37;;;;;;;9.90;8.20;;;4.00;62.50;;;-142.21;100.00;112049.66;4996741;28;20242;-79
2022/01/12 05:45:08;;;;;;;10.25;8.18;;;4.00;62.30;;;-142.21;100.00;112049.66;4996251;28;20728;-79
2022/01/12 05:49:33;;;;;;;11.32;8.30;;;3.90;62.50;;;-142.21;100.00;112049.66;4991111;28;20216;-79
2022/01/12 05:50:29;;;;;;;10.32;7.97;;;3.90;62.60;;;-142.21;100.00;112049.66;4977080;28;20219;-79
2022/01/12 05:52:57;;;;;;;11.55;8.93;;;3.90;62.70;;;-142.21;100.00;112049.66;4977088;28;20196;-78
2022/01/12 05:55:25;;;;;;;10.15;8.57;;;3.90;62.70;;;-142.21;100.00;112049.66;4977591;28;20216;-79
2022/01/12 05:57:52;;;;;;;9.13;8.15;;;3.80;62.70;;;-142.21;100.00;112049.66;4976719;28;20215;-79
2022/01/12 06:00:24;;;;;;;12.40;8.60;;;3.80;62.90;;;-142.21;100.00;112049.66;4980302;28;20219;-79
2022/01/12 06:02:51;;;;;;;11.38;8.93;;;3.80;62.90;;;-142.21;100.00;112049.66;4979021;28;20690;-79
2022/01/12 06:05:20;;;;;;;10.85;8.77;;;3.80;62.90;;;-142.21;100.00;112049.66;4996456;28;20988;-78
2022/01/12 06:07:50;;;;;;;11.38;9.18;;;3.70;63.40;;;-142.21;100.00;112049.66;4978195;28;21035;-78
2022/01/12 06:10:21;;;;;;;12.13;9.98;;;3.70;63.60;;;-142.21;100.00;112049.66;4995993;28;20200;-78
2022/01/12 06:12:48;;;;;;;12.60;9.05;;;3.70;63.10;;;-142.21;100.00;112049.66;4996172;28;20216;-78
2022/01/12 06:15:15;;;;;;;10.40;8.40;;;3.70;62.60;;;-142.21;100.00;112049.66;4996042;28;20207;-77
2022/01/12 06:17:42;;;;;;;12.45;9.43;;;3.80;62.70;;;-142.21;100.00;112049.66;4996439;28;20214;-79
2022/01/12 06:20:10;;;;;;;11.35;8.63;;;3.90;62.80;;;-142.21;100.00;112049.66;4978267;28;20224;-78
2022/01/12 06:22:38;;;;;;;10.75;8.98;;;3.80;62.70;;;-142.21;100.00;112049.66;4996524;28;20234;-79
2022/01/12 06:25:12;;;;;;;12.93;9.45;;;3.80;63.10;;;-142.21;100.00;112049.66;4995518;28;20239;-78
2022/01/12 06:27:48;;;;;;;11.90;9.00;;;3.80;63.20;;;-142.21;100.00;112049.66;4996057;28;20191;-78
2022/01/12 06:31:10;;;;;;;13.18;9.93;;;3.80;63.60;;;-142.21;100.00;112049.66;4995885;28;20188;-78
2022/01/12 06:33:03;;;;;;;14.50;11.68;;;3.80;63.80;;;-142.21;100.00;112049.66;4995788;28;20211;-79
2022/01/12 06:35:30;;;;;;;12.93;11.50;;;3.90;63.90;;;-142.21;100.00;112049.66;4978296;28;20218;-79
2022/01/12 06:37:57;;;;;;;14.15;10.80;;;3.90;63.90;;;-142.21;100.00;112049.66;4996355;28;20214;-79
2022/01/12 06:40:26;;;;;;;10.85;9.20;;;3.90;64.00;;;-142.21;100.00;112049.66;4995169;28;20231;-78
2022/01/12 06:42:53;;;;;;;11.88;9.95;;;4.00;64.00;;;-142.21;100.00;112049.66;4995696;28;20241;-78
2022/01/12 06:45:20;;;;;;;11.45;9.50;;;4.10;63.80;;;-142.21;100.00;112049.66;4995702;28;20212;-77
2022/01/12 06:47:48;;;;;;;11.98;9.63;;;4.00;63.40;;;-142.21;100.00;112049.66;4995793;28;20602;-78
2022/01/12 06:50:15;;;;;;;11.00;9.25;;;4.00;63.30;;;-142.21;100.00;112049.66;4994602;28;20208;-79
2022/01/12 06:52:42;;;;;;;11.30;9.70;;;4.10;63.30;;;-142.21;100.00;112049.66;4995854;28;20234;-80
2022/01/12 06:55:10;;;;;;;11.48;9.38;;;4.10;63.10;;;-142.21;100.00;112049.66;4978462;28;20214;-79
2022/01/12 06:57:39;;;;;;;11.45;9.45;;;4.10;63.30;;;-142.21;100.00;112049.66;4994833;28;20692;-80
2022/01/12 07:00:07;;;;;;;10.95;9.38;;;4.10;63.30;;;-142.21;100.00;112049.66;4995592;28;20314;-79
2022/01/12 07:02:35;;;;;;;14.40;12.88;;;4.10;63.20;;;-142.21;100.00;112049.66;4982809;28;20745;-80
2022/01/12 07:05:02;;;;;;;15.55;13.13;;;4.10;63.20;;;-142.21;100.00;112049.66;4978286;28;20627;-79
2022/01/12 07:07:30;;;;;;;14.48;12.88;;;4.10;63.10;;;-142.21;100.00;112049.66;4995345;28;20239;-77
2022/01/12 07:09:57;;;;;;;14.20;12.70;;;4.10;63.20;;;-142.21;100.00;112049.66;4978476;28;20311;-77
2022/01/12 07:12:24;;;;;;;12.35;10.60;;;4.20;63.20;;;-142.21;100.00;112049.66;4995252;28;20624;-75
2022/01/12 07:14:54;;;;;;;11.50;9.55;;;4.20;63.10;;;-142.21;100.00;112049.66;4994999;28;20239;-78
2022/01/12 07:17:21;;;;;;;11.30;10.10;;;4.20;63.20;;;-142.21;100.00;112049.66;4995246;28;20644;-78
2022/01/12 07:19:48;;;;;;;12.50;10.70;;;4.10;63.30;;;-142.21;100.00;112049.66;4993974;28;20230;-77
2022/01/12 07:22:15;;;;;;;11.40;10.15;;;4.20;63.40;;;-142.21;100.00;112049.66;4988773;28;20641;-75
2022/01/12 07:24:42;;;;;;;11.88;9.55;;;4.20;63.50;;;-142.21;100.00;112049.66;4975401;28;20295;-77
2022/01/12 07:27:09;;;;;;;13.35;10.38;;;4.20;63.50;;;-142.21;100.00;112049.66;4977656;28;20580;-78
2022/01/12 07:29:37;;;;;;;13.05;10.55;;;4.30;63.20;;;-142.21;100.00;112049.66;4994721;28;20200;-77
2022/01/12 07:32:07;;;;;;;11.38;9.70;;;4.30;63.20;;;-142.21;100.00;112049.66;4994884;28;20660;-79
2022/01/12 07:34:36;;;;;;;11.90;10.20;;;4.30;63.10;;;-142.21;100.00;112049.66;4994707;28;20196;-80
2022/01/12 07:37:03;;;;;;;12.45;10.40;;;4.30;63.00;;;-142.21;100.00;112049.66;4987155;28;20207;-79
2022/01/12 07:39:30;;;;;;;12.90;10.13;;;4.30;62.80;;;-142.21;100.00;112049.66;4994812;28;20640;-80
2022/01/12 07:41:57;;;;;;;10.25;9.15;;;4.30;62.80;;;-142.21;100.00;112049.66;4961792;28;20631;-80
2022/01/12 07:44:26;;;;;;;13.30;9.90;;;4.30;62.80;;;-142.21;100.00;112049.66;4955890;29;20614;-78
2022/01/12 07:46:53;;;;;;;12.68;9.50;;;4.30;63.20;;;-142.21;100.00;112049.66;4955497;29;20652;-79
2022/01/12 07:49:21;;;;;;;11.07;8.85;;;4.90;62.70;;;-142.21;100.00;112049.66;4955662;29;20300;-79
2022/01/12 07:51:49;;;;;;;13.10;9.15;;;5.70;60.10;;;-142.21;100.00;112049.66;4955143;29;20208;-78
2022/01/12 07:54:16;;;;;;;10.65;8.48;;;6.40;59.00;;;-142.21;99.89;112049.66;4955728;29;20296;-79
2022/01/12 07:56:43;;;;;;;10.48;8.90;;;6.70;58.40;;;-142.21;100.00;112049.66;4955563;29;20662;-79
2022/01/12 07:59:10;;;;;;;11.90;9.43;;;6.40;57.80;;;-142.21;100.00;112049.66;4953837;29;20300;-80
2022/01/12 08:01:38;;;;;;;11.00;9.25;;;6.20;58.00;;;-142.21;100.00;112049.66;4954599;28;20316;-80
2022/01/12 08:04:05;;;;;;;10.65;9.00;;;5.90;58.60;;;-142.21;100.00;112049.66;4954727;29;20690;-80
2022/01/12 08:06:33;;;;;;;11.80;9.48;;;5.80;58.60;;;-142.21;100.00;112049.66;4966192;28;20288;-78
2022/01/12 08:09:01;;;;;;;11.88;9.60;;;5.70;58.80;;;-142.21;98.86;112049.66;4975284;28;20239;-80
2022/01/12 08:11:31;;;;;;;11.13;9.52;;;5.90;58.90;;;-142.21;99.73;112049.66;4974963;28;20260;-79
2022/01/12 08:13:58;;;;;;;11.90;10.40;;;5.70;59.10;;;-142.21;100.00;112049.66;4974993;28;20292;-79
2022/01/12 08:16:26;;;;;;;11.35;10.15;;;5.80;59.30;;;-142.21;98.60;112049.66;4964769;28;20312;-80
2022/01/12 08:18:55;;;;;;;12.02;10.75;;;5.70;59.50;;;-142.21;99.13;112049.66;4967977;28;20556;-80
2022/01/12 08:21:24;;;;;;;12.07;10.88;;;5.70;59.40;;;-142.21;100.00;112049.66;4974187;28;20287;-81
2022/01/12 08:23:52;;;;;;;12.85;10.55;;;5.60;59.80;;;-142.21;98.37;112049.66;4974823;28;20219;-80
2022/01/12 08:26:19;;;;;;;11.48;9.93;;;5.70;59.90;;;-142.21;98.45;112049.66;4973982;28;20311;-79
2022/01/12 08:28:46;;;;;;;11.98;10.75;;;5.70;60.00;;;-142.21;98.08;112049.66;4974175;28;20260;-80
2022/01/12 08:31:14;;;;;;;12.43;10.85;;;5.80;59.60;;;-142.21;98.19;112049.66;4973670;28;20292;-80
2022/01/12 08:33:41;;;;;;;11.05;9.90;;;5.80;59.10;;;-142.21;97.97;112049.66;4974340;28;20295;-81
2022/01/12 08:36:10;;;;;;;12.43;11.23;;;5.60;59.00;;;-142.21;97.07;112049.66;4969190;28;20225;-80
2022/01/12 08:38:37;;;;;;;11.65;10.45;;;5.70;59.20;;;-142.21;97.22;112049.66;4954461;29;20244;-79
2022/01/12 08:41:06;;;;;;;10.75;9.70;;;5.70;59.20;;;-142.21;96.71;112049.66;4954852;28;20316;-81
2022/01/12 08:43:33;;;;;;;10.98;9.88;;;5.80;59.20;;;-142.21;95.52;112049.66;4973437;28;20228;-80
2022/01/12 08:46:01;;;;;;;12.25;10.20;;;6.30;58.80;;;-142.21;96.78;112049.66;4957103;28;20240;-81
2022/01/12 08:48:28;;;;;;;11.27;9.90;;;7.00;57.80;;;-142.21;96.57;112049.66;4973763;28;20294;-80
2022/01/12 08:50:56;;;;;;;10.50;9.10;;;7.60;55.90;;;-142.21;96.18;112049.66;4973956;28;20292;-79
2022/01/12 08:53:23;;;;;;;11.70;9.77;;;7.80;55.60;;;-142.21;95.22;112049.66;4973905;28;20288;-80
2022/01/12 08:55:50;;;;;;;17.63;10.13;;;7.70;55.50;;;-142.21;94.85;112049.66;4973940;28;20494;-78
2022/01/12 08:58:19;;;;;;;11.03;9.87;;;8.60;55.40;;;-142.21;91.88;112049.66;4973847;28;20498;-81
2022/01/12 09:00:46;;;;;;;11.27;10.10;;;9.10;53.50;;;-142.21;89.12;112049.66;4972994;28;20524;-80
2022/01/12 09:03:14;;;;;;;10.27;9.27;;;8.60;53.30;;;-142.21;84.18;112049.66;4974187;28;20531;-80
2022/01/12 09:05:42;;;;;;;11.07;9.93;;;8.50;54.30;;;-142.21;83.69;112049.66;4986433;28;20482;-80
2022/01/12 09:08:10;;;;;;;10.30;9.20;;;8.60;53.90;;;-142.21;85.18;112049.66;4975959;28;20490;-80
2022/01/12 09:10:38;;;;;;;11.10;10.03;;;9.30;52.70;;;-142.21;83.94;112049.66;4992895;28;20443;-80
2022/01/12 09:13:05;;;;;;;11.00;9.90;;;8.60;51.80;;;-142.21;84.71;112049.66;4992659;28;20478;-80
2022/01/12 09:15:34;;;;;;;12.50;11.27;;;8.50;52.80;;;-142.21;83.98;112049.66;4975464;28;20458;-80
2022/01/12 09:18:01;;;;;;;12.53;11.23;;;8.60;53.30;;;-142.21;84.30;112049.66;4992666;28;20478;-80
2022/01/12 09:20:29;;;;;;;14.77;13.17;;;9.10;53.40;;;-142.21;81.59;112049.66;4992932;28;20491;-77
2022/01/12 09:22:56;;;;;;;14.87;13.30;;;8.60;52.50;;;-142.21;81.56;112049.66;4992453;28;20446;-80
2022/01/12 09:25:23;;;;;;;14.43;12.60;;;8.50;53.20;;;-142.21;80.31;112049.66;4943085;28;20458;-80
2022/01/12 09:27:51;;;;;;;13.57;12.20;;;8.50;53.20;;;-142.21;79.59;112049.66;4992211;28;20531;-80
2022/01/12 09:30:23;;;;;;;13.27;11.87;;;8.60;53.00;;;-142.21;77.70;112049.66;4985315;28;20468;-80
2022/01/12 09:32:51;;;;;;;13.03;11.77;;;9.00;52.60;;;-142.21;71.96;112049.66;4979064;28;20548;-79
2022/01/12 09:35:21;;;;;;;12.00;10.90;;;9.00;51.60;;;-142.21;73.57;112049.66;4990626;28;20458;-78
2022/01/12 09:37:48;;;;;;;12.00;10.57;;;8.80;52.00;;;-142.21;70.55;112049.66;4992747;28;20454;-79
2022/01/12 09:40:16;;;;;;;12.80;11.50;;;8.90;51.90;;;-142.21;64.91;112049.66;4992707;28;20620;-80
2022/01/12 09:42:46;;;;;;;12.10;9.67;;;8.90;51.50;;;-142.21;61.83;112049.66;4979334;28;20507;-78
2022/01/12 09:45:17;;;;;;;10.90;9.80;;;8.80;51.10;;;-142.21;60.43;112049.66;4955634;28;20444;-79
2022/01/12 09:47:49;;;;;;;10.93;9.87;;;9.30;51.30;;;-142.21;59.97;112049.66;4990455;28;20443;-79
2022/01/12 09:50:21;;;;;;;10.83;9.73;;;9.80;49.60;;;-142.21;58.10;112049.66;4991780;28;20451;-80
2022/01/12 09:52:49;;;;;;;10.13;9.23;;;10.50;48.80;;;-142.21;54.58;112049.66;4992551;28;20923;-79
2022/01/12 09:55:17;;;;;;;10.40;9.40;;;11.10;49.10;;;-142.21;48.24;112049.66;4991769;28;20451;-79
2022/01/12 09:57:44;;;;;;;10.70;9.43;;;11.70;46.60;;;-142.21;48.17;112049.66;4926987;28;20443;-79
2022/01/12 10:00:16;;;;;;;9.87;8.90;;;12.30;46.00;;;-142.21;48.40;112049.66;4972673;28;20503;-79
2022/01/12 10:02:46;;;;;;;9.97;9.00;;;12.70;45.50;;;-142.21;46.44;112049.66;4956777;28;20440;-79
2022/01/12 10:05:14;;;;;;;9.73;8.77;;;13.10;44.40;;;-142.21;45.79;112049.66;4982962;28;20543;-79
2022/01/12 10:07:43;;;;;;;10.53;9.53;;;13.40;43.20;;;-142.21;44.19;112049.66;4989659;28;20470;-79
2022/01/12 10:10:15;;;;;;;9.60;8.70;;;13.90;43.30;;;-142.21;43.26;112049.66;4990869;28;20451;-79
2022/01/12 10:12:54;;;;;;;10.13;9.17;;;13.80;42.80;;;-142.21;40.85;112049.66;4992589;28;20502;-78
2022/01/12 10:15:24;;;;;;;10.00;9.00;;;14.50;41.80;;;-142.21;41.11;112049.66;4991941;28;20473;-80
2022/01/12 10:17:52;;;;;;;10.17;9.27;;;14.80;41.40;;;-142.21;36.21;112049.66;4992631;28;20946;-78
2022/01/12 10:20:22;;;;;;;10.50;9.60;;;15.40;40.60;;;-142.21;34.95;112049.66;4941673;28;20451;-79
2022/01/12 10:23:05;;;;;;;9.90;9.03;;;16.20;40.00;;;-142.21;34.38;112049.66;4975412;28;20427;-79
2022/01/12 10:25:33;;;;;;;10.00;9.10;;;17.20;37.40;;;-142.21;32.51;112049.66;4975662;28;20447;-75
2022/01/12 10:28:14;;;;;;;10.03;9.13;;;17.80;37.80;;;-142.21;30.74;112049.66;4995859;28;20935;-78
2022/01/12 10:30:51;;;;;;;9.47;8.60;;;18.70;35.60;;;-142.21;31.88;112049.66;4996168;28;20475;-76
2022/01/12 10:33:18;;;;;;;9.63;8.80;;;19.80;36.00;;;-142.21;29.48;112049.66;4995942;28;20234;-78
2022/01/12 10:35:54;;;;;;;9.53;8.73;;;20.60;33.50;;;-142.21;29.18;112049.66;4995981;28;20203;-78
2022/01/12 10:38:23;;;;;;;9.40;8.60;;;21.00;32.80;;;-142.21;27.83;112049.66;4995074;28;20192;-78
2022/01/12 10:40:54;;;;;;;9.30;8.57;;;21.50;31.20;;;-142.21;29.52;112049.66;4995841;28;20255;-78
2022/01/12 10:43:34;;;;;;;9.17;8.43;;;22.10;32.50;;;-142.21;26.30;112049.66;4993047;28;20235;-77
2022/01/12 10:46:04;;;;;;;9.67;8.87;;;22.90;30.30;;;-142.21;26.51;112049.66;4979543;28;20199;-76
2022/01/12 10:48:45;;;;;;;9.10;8.40;;;23.30;30.00;;;-142.21;26.23;112049.66;4975624;28;20681;-77
2022/01/12 10:51:15;;;;;;;9.13;8.33;;;24.10;29.00;;;-142.21;28.33;112049.66;4981679;28;20706;-77
2022/01/12 10:53:44;;;;;;;8.50;7.80;;;24.70;29.80;;;-142.21;26.02;112049.66;4989811;28;20199;-76
2022/01/12 10:56:15;;;;;;;9.17;8.37;;;24.90;28.90;;;-142.21;26.49;112049.66;4995446;28;20291;-75
2022/01/12 10:58:45;;;;;;;8.90;8.17;;;24.70;29.50;;;-142.21;25.78;112049.66;4989730;28;20628;-77
2022/01/12 11:01:14;;;;;;;8.60;7.77;;;24.60;29.30;;;-142.21;26.70;112049.66;4995420;28;20592;-77
2022/01/12 11:03:42;;;;;;;7.77;7.17;;;24.70;28.80;;;-142.21;25.37;112049.66;4973696;28;20204;-76
2022/01/12 11:06:10;;;;;;;7.43;6.73;;;24.80;28.10;;;-142.21;27.32;112049.66;4978134;28;20557;-78
2022/01/12 11:08:40;;;;;;;8.10;7.40;;;25.10;28.50;;;-142.21;27.50;112049.66;4994693;28;20303;-78
2022/01/12 11:11:10;;;;;;;7.40;6.80;;;24.90;28.30;;;-142.21;27.09;112049.66;4995189;28;20277;-77